Time;durP1;ratioP1;P1;durP2;ratioP2;P2;SDS_P1;SDS_P2;PMS_P1;PMS_P2;Temp;Humidity;BMP_temperature;BMP_pressure;BME280_temperature;BME280_humidity;BME280_pressure;Samples;Min_cycle;Max_cycle;Signal;HPM_P1;HPM_P2
2023/03/23 00:01:56;;;;;;;1.17;1.00;;;;;;;20.71;40.83;100050.44;5035393;28;20047;-69
2023/03/23 00:04:22;;;;;;;1.02;0.68;;;;;;;20.78;40.98;100058.38;5040173;28;20116;-69
2023/03/23 00:06:49;;;;;;;0.70;0.70;;;;;;;20.88;40.64;100053.50;5039586;28;20063;-69
2023/03/23 00:09:15;;;;;;;2.38;1.00;;;;;;;20.74;40.60;100036.81;5038719;28;20402;-69
2023/03/23 00:11:42;;;;;;;1.10;1.00;;;;;;;20.76;40.86;100053.28;5041332;28;20039;-69
2023/03/23 00:14:12;;;;;;;0.90;0.90;;;;;;;20.76;40.85;100044.53;5033492;28;20044;-69
2023/03/23 00:16:40;;;;;;;0.80;0.77;;;;;;;20.70;40.97;100045.38;5040119;28;20045;-69
2023/03/23 00:19:13;;;;;;;1.33;0.70;;;;;;;20.79;40.98;100050.22;5041359;28;20034;-69
2023/03/23 00:21:41;;;;;;;0.98;0.90;;;;;;;20.79;40.98;100062.66;5036706;28;20107;-69
2023/03/23 00:24:18;;;;;;;0.82;0.77;;;;;;;20.76;40.83;100055.94;5036108;28;20033;-69
2023/03/23 00:26:46;;;;;;;1.98;0.90;;;;;;;20.69;40.98;100051.69;5041576;28;20451;-69
2023/03/23 00:29:21;;;;;;;0.80;0.80;;;;;;;20.72;40.95;100045.97;5039960;28;20129;-69
2023/03/23 00:31:49;;;;;;;0.80;0.70;;;;;;;20.77;41.02;100052.28;5040040;28;20041;-69
2023/03/23 00:34:19;;;;;;;0.95;0.85;;;;;;;20.75;41.05;100061.44;5041891;28;20981;-69
2023/03/23 00:36:46;;;;;;;0.65;0.65;;;;;;;20.71;40.91;100061.03;5036733;28;20049;-69
2023/03/23 00:39:12;;;;;;;1.65;1.00;;;;;;;20.68;41.28;100048.22;5038681;28;20056;-70
2023/03/23 00:41:39;;;;;;;1.00;0.90;;;;;;;20.68;41.21;100063.28;5037721;28;20033;-69
2023/03/23 00:44:04;;;;;;;1.05;0.80;;;;;;;20.63;40.92;100031.31;5043364;28;20506;-69
2023/03/23 00:46:30;;;;;;;1.50;1.13;;;;;;;20.71;40.91;100058.38;5044225;28;20544;-69
2023/03/23 00:48:56;;;;;;;1.20;1.00;;;;;;;20.69;40.99;100049.84;5043794;28;20053;-69
2023/03/23 00:51:23;;;;;;;1.20;1.10;;;;;;;20.70;41.03;100048.00;5044714;28;20033;-69
2023/03/23 00:53:50;;;;;;;0.90;0.90;;;;;;;20.69;40.96;100052.50;5045236;28;20037;-69
2023/03/23 00:56:16;;;;;;;1.65;1.00;;;;;;;20.73;41.16;100052.88;5033888;28;20026;-69
2023/03/23 00:58:42;;;;;;;0.82;0.82;;;;;;;20.74;40.94;100062.44;5043673;28;20501;-69
2023/03/23 01:01:08;;;;;;;1.25;0.80;;;;;;;20.63;41.17;100071.81;5045040;28;20028;-69
2023/03/23 01:03:34;;;;;;;1.88;1.00;;;;;;;20.66;41.20;100068.78;5042732;28;20033;-69
2023/03/23 01:06:12;;;;;;;1.33;0.98;;;;;;;20.63;41.15;100060.41;5037591;28;20045;-69
2023/03/23 01:08:45;;;;;;;1.52;1.25;;;;;;;20.71;41.05;100055.75;5043475;28;20045;-69
2023/03/23 01:11:15;;;;;;;1.27;1.17;;;;;;;20.70;41.05;100070.00;5039303;28;20496;-69
2023/03/23 01:13:44;;;;;;;0.90;0.90;;;;;;;20.73;41.08;100060.81;5034420;28;20471;-69
2023/03/23 01:16:11;;;;;;;1.05;0.95;;;;;;;20.66;40.95;100054.72;5041329;28;20032;-69
2023/03/23 01:18:36;;;;;;;1.40;1.00;;;;;;;20.64;41.00;100031.09;5037846;28;20071;-69
2023/03/23 01:21:07;;;;;;;0.52;0.52;;;;;;;20.73;40.97;100040.47;5041260;28;20128;-69
2023/03/23 01:23:34;;;;;;;0.70;0.70;;;;;;;20.61;41.13;100030.69;5037213;28;20036;-69
2023/03/23 01:26:08;;;;;;;1.02;0.93;;;;;;;20.69;41.26;100026.03;5040313;28;20056;-69
2023/03/23 01:28:35;;;;;;;0.80;0.80;;;;;;;20.62;41.03;100016.47;5037351;28;20416;-69
2023/03/23 01:31:05;;;;;;;1.73;1.20;;;;;;;20.50;41.15;99990.63;5042123;28;20547;-69
2023/03/23 01:33:31;;;;;;;0.70;0.70;;;;;;;20.67;41.17;100006.09;5023728;28;20055;-69
2023/03/23 01:35:57;;;;;;;0.70;0.70;;;;;;;20.51;41.18;99992.25;5040542;28;20157;-69
2023/03/23 01:38:23;;;;;;;1.15;0.98;;;;;;;20.69;41.09;100001.41;5038097;28;20033;-69
2023/03/23 01:40:49;;;;;;;1.15;1.05;;;;;;;20.58;41.27;99996.72;5045185;28;20041;-69
2023/03/23 01:43:16;;;;;;;0.75;0.75;;;;;;;20.57;41.17;99998.56;5047550;28;20041;-69
2023/03/23 01:45:43;;;;;;;1.05;0.93;;;;;;;20.62;40.95;99990.00;5041185;28;20045;-69
2023/03/23 01:48:17;;;;;;;0.75;0.75;;;;;;;20.60;40.98;99989.41;5043695;28;20133;-69
2023/03/23 01:50:58;;;;;;;1.02;0.82;;;;;;;20.56;41.12;99981.06;5042698;28;20037;-69
2023/03/23 01:53:28;;;;;;;1.00;0.90;;;;;;;20.54;41.07;99984.94;5067625;28;20034;-69
2023/03/23 01:55:57;;;;;;;1.23;1.13;;;;;;;20.60;41.04;99999.97;5047119;28;20041;-69
2023/03/23 01:58:27;;;;;;;0.82;0.82;;;;;;;20.59;41.23;99995.72;5036840;28;20040;-69
2023/03/23 02:00:58;;;;;;;0.75;0.75;;;;;;;20.60;41.55;99992.84;5038243;28;20030;-69
2023/03/23 02:03:24;;;;;;;1.20;0.90;;;;;;;20.62;41.00;99992.66;5045117;28;20037;-69
2023/03/23 02:05:51;;;;;;;0.75;0.73;;;;;;;20.56;41.05;99985.53;5043199;28;20033;-70
2023/03/23 02:08:32;;;;;;;1.33;0.90;;;;;;;20.54;41.30;99969.06;5044534;28;20463;-69
2023/03/23 02:11:00;;;;;;;1.65;1.20;;;;;;;20.55;41.34;99971.50;5041522;28;20053;-69
2023/03/23 02:13:28;;;;;;;1.55;1.00;;;;;;;20.50;41.13;99944.88;5071811;28;20132;-69
2023/03/23 02:16:06;;;;;;;1.10;1.00;;;;;;;20.55;41.20;99970.69;5034278;28;20428;-69
2023/03/23 02:18:50;;;;;;;1.60;1.00;;;;;;;20.61;41.12;99962.75;5044313;28;20037;-69
2023/03/23 02:21:57;;;;;;;1.67;1.30;;;;;;;20.57;41.11;99950.94;5045928;28;20053;-69
2023/03/23 02:24:39;;;;;;;0.82;0.60;;;;;;;20.59;40.95;99956.84;5023624;28;20048;-69
2023/03/23 02:27:13;;;;;;;1.17;1.08;;;;;;;20.56;41.30;99959.91;5039982;28;20100;-69
2023/03/23 02:29:55;;;;;;;1.25;1.10;;;;;;;20.57;40.99;99952.78;5039806;28;20808;-69
2023/03/23 02:32:57;;;;;;;1.73;1.10;;;;;;;20.52;41.11;99961.34;5039706;28;20079;-69
2023/03/23 02:35:37;;;;;;;0.80;0.80;;;;;;;20.56;41.04;99959.09;5048537;28;20040;-69
2023/03/23 02:38:17;;;;;;;0.57;0.57;;;;;;;20.41;41.21;99941.59;5061335;28;20033;-69
2023/03/23 02:40:46;;;;;;;1.67;1.00;;;;;;;20.48;41.13;99950.38;5044541;28;20040;-69
2023/03/23 02:43:16;;;;;;;0.70;0.60;;;;;;;20.48;41.05;99953.00;5039023;28;20029;-69
2023/03/23 02:45:45;;;;;;;1.80;1.10;;;;;;;20.54;41.22;99942.63;5046982;28;20037;-69
2023/03/23 02:48:14;;;;;;;1.20;1.10;;;;;;;20.52;41.10;99938.34;5048220;28;20087;-69
2023/03/23 02:50:43;;;;;;;1.05;0.95;;;;;;;20.59;41.03;99929.59;5046588;28;20045;-69
2023/03/23 02:53:12;;;;;;;0.70;0.68;;;;;;;20.50;41.18;99931.63;5042565;28;20498;-69
2023/03/23 02:55:42;;;;;;;0.90;0.90;;;;;;;20.43;41.55;99914.94;5037046;28;20035;-69
2023/03/23 02:58:12;;;;;;;0.70;0.65;;;;;;;20.52;41.08;99914.53;5055423;28;20047;-69
2023/03/23 03:00:40;;;;;;;0.70;0.70;;;;;;;20.39;41.34;99924.28;5051553;28;20487;-69
2023/03/23 03:03:14;;;;;;;1.02;0.90;;;;;;;20.49;41.22;99925.53;5049780;28;20033;-69
2023/03/23 03:05:49;;;;;;;0.70;0.70;;;;;;;20.50;41.22;99924.53;5050700;28;20107;-70
2023/03/23 03:08:39;;;;;;;0.98;0.93;;;;;;;20.46;41.24;99920.63;5040483;28;20033;-69
2023/03/23 03:11:10;;;;;;;1.30;1.17;;;;;;;20.48;41.33;99912.53;5039752;28;20040;-69
2023/03/23 03:14:02;;;;;;;0.77;0.77;;;;;;;20.45;41.22;99912.91;5040365;28;20479;-69
2023/03/23 03:16:30;;;;;;;0.68;0.68;;;;;;;20.50;41.33;99918.41;5037859;28;20039;-69
2023/03/23 03:19:02;;;;;;;1.20;1.10;;;;;;;20.49;41.19;99911.50;5038868;28;20045;-69
2023/03/23 03:21:32;;;;;;;1.88;1.10;;;;;;;20.37;41.49;99913.09;5043849;28;20057;-69
2023/03/23 03:24:01;;;;;;;1.02;0.90;;;;;;;20.51;41.03;99910.28;5039827;28;20037;-69
2023/03/23 03:26:31;;;;;;;0.80;0.80;;;;;;;20.50;41.05;99913.94;5046918;28;20029;-69
2023/03/23 03:29:07;;;;;;;1.20;0.85;;;;;;;20.43;41.23;99907.03;5038948;28;20033;-69
2023/03/23 03:31:45;;;;;;;0.93;0.68;;;;;;;20.45;41.27;99905.78;5073238;28;20083;-69
2023/03/23 03:34:17;;;;;;;1.27;0.85;;;;;;;20.47;41.24;99893.19;5034891;28;20044;-69
2023/03/23 03:36:46;;;;;;;1.40;0.90;;;;;;;20.51;41.04;99898.88;5035544;28;20026;-69
2023/03/23 03:39:15;;;;;;;0.73;0.68;;;;;;;20.39;41.18;99880.16;5043068;28;20037;-69
2023/03/23 03:41:43;;;;;;;1.13;0.93;;;;;;;20.45;41.25;99895.22;5047979;28;20052;-69
2023/03/23 03:44:09;;;;;;;1.25;1.10;;;;;;;20.47;41.23;99890.56;5037826;28;20141;-69
2023/03/23 03:46:36;;;;;;;1.05;0.95;;;;;;;20.43;41.08;99902.53;5035447;28;20029;-69
2023/03/23 03:49:05;;;;;;;0.73;0.73;;;;;;;20.48;41.00;99912.53;5044338;28;20029;-69
2023/03/23 03:51:35;;;;;;;0.73;0.73;;;;;;;20.42;41.21;99895.63;5042755;28;20025;-69
2023/03/23 03:54:01;;;;;;;0.77;0.77;;;;;;;20.44;41.34;99898.88;5038435;28;20076;-69
2023/03/23 03:56:27;;;;;;;1.15;1.00;;;;;;;20.41;41.14;99887.91;5034040;28;20121;-69
2023/03/23 03:59:09;;;;;;;0.90;0.90;;;;;;;20.39;41.24;99893.38;5042105;28;20267;-69
2023/03/23 04:01:53;;;;;;;0.90;0.90;;;;;;;20.40;41.25;99889.69;5037981;28;20068;-69
2023/03/23 04:04:21;;;;;;;1.73;1.15;;;;;;;20.50;40.97;99894.63;5045850;28;20037;-69
2023/03/23 04:06:48;;;;;;;0.80;0.80;;;;;;;20.40;41.23;99897.63;5035775;28;20513;-69
2023/03/23 04:09:14;;;;;;;1.58;1.13;;;;;;;20.35;41.31;99871.00;5045925;28;20045;-69
2023/03/23 04:11:40;;;;;;;0.73;0.73;;;;;;;20.41;41.43;99862.28;5040999;28;20041;-69
2023/03/23 04:14:24;;;;;;;0.85;0.85;;;;;;;20.39;41.09;99861.63;5043196;28;20080;-69
2023/03/23 04:16:56;;;;;;;1.27;1.05;;;;;;;20.44;41.15;99855.75;5042004;28;20045;-69
2023/03/23 04:19:23;;;;;;;1.00;0.98;;;;;;;20.44;41.00;99842.53;5034445;28;20034;-69
2023/03/23 04:21:49;;;;;;;1.23;0.88;;;;;;;20.48;41.23;99835.84;5034151;28;20052;-69
2023/03/23 04:24:16;;;;;;;1.00;0.90;;;;;;;20.40;41.33;99836.00;5037512;28;20435;-69
2023/03/23 04:26:44;;;;;;;0.98;0.88;;;;;;;20.39;41.04;99824.63;5039724;28;20029;-69
2023/03/23 04:29:19;;;;;;;0.60;0.60;;;;;;;20.48;40.95;99839.28;5040539;28;20041;-69
2023/03/23 04:32:14;;;;;;;0.80;0.80;;;;;;;20.40;41.13;99868.56;5033123;28;20049;-69
2023/03/23 04:34:44;;;;;;;;;;;;;;;20.41;41.28;99872.84;5039636;28;20033;-69
2023/03/23 04:37:10;;;;;;;0.60;0.60;;;;;;;20.34;41.28;99866.75;5038356;28;20345;-69
2023/03/23 04:39:39;;;;;;;0.95;0.95;;;;;;;20.40;41.26;99871.19;5045069;28;20044;-69
2023/03/23 04:42:06;;;;;;;1.13;1.05;;;;;;;20.38;41.42;99883.81;5049299;28;20076;-69
2023/03/23 04:44:55;;;;;;;0.77;0.60;;;;;;;20.39;41.18;99885.44;5046124;28;20360;-69
2023/03/23 04:47:30;;;;;;;0.70;0.70;;;;;;;20.33;41.38;99888.09;5049721;28;20063;-69
2023/03/23 04:49:58;;;;;;;1.00;0.88;;;;;;;20.37;41.30;99913.09;5039124;28;20546;-69
2023/03/23 04:52:44;;;;;;;0.75;0.75;;;;;;;20.33;41.36;99907.41;5046573;28;20025;-69
2023/03/23 04:55:11;;;;;;;1.17;0.77;;;;;;;20.34;41.43;99924.09;5045326;28;20041;-69
2023/03/23 04:57:40;;;;;;;0.80;0.80;;;;;;;20.30;41.30;99929.00;5042515;28;20097;-69
2023/03/23 05:00:24;;;;;;;0.70;0.70;;;;;;;20.37;41.32;99943.00;5035326;28;20156;-69
2023/03/23 05:02:55;;;;;;;0.77;0.67;;;;;;;20.25;41.64;99920.03;5038503;28;20124;-69
2023/03/23 05:05:24;;;;;;;1.02;0.65;;;;;;;20.27;41.41;99907.41;5040721;28;20540;-69
2023/03/23 05:07:51;;;;;;;1.05;0.95;;;;;;;20.33;41.30;99919.81;5038543;28;20029;-69
2023/03/23 05:10:21;;;;;;;1.00;0.93;;;;;;;20.32;41.31;99919.03;5046858;28;20044;-69
2023/03/23 05:12:47;;;;;;;0.68;0.60;;;;;;;20.29;41.54;99921.22;5045071;28;20128;-69
2023/03/23 05:15:15;;;;;;;1.20;1.02;;;;;;;20.25;41.57;99923.47;5031233;28;20068;-70
2023/03/23 05:17:45;;;;;;;0.75;0.70;;;;;;;20.29;41.58;99927.38;5041498;28;20215;-69
2023/03/23 05:20:19;;;;;;;1.13;0.88;;;;;;;20.32;41.42;99929.59;5034690;28;21093;-69
2023/03/23 05:22:49;;;;;;;0.98;0.88;;;;;;;20.31;41.34;99930.63;5039525;28;20048;-69
2023/03/23 05:25:22;;;;;;;0.83;0.70;;;;;;;20.33;41.38;99925.94;5054343;28;20039;-69
2023/03/23 05:27:54;;;;;;;1.13;1.02;;;;;;;20.31;41.42;99929.78;5040125;28;20130;-69
2023/03/23 05:30:35;;;;;;;0.73;0.70;;;;;;;20.37;41.15;99931.63;5043578;28;21209;-69
2023/03/23 05:33:02;;;;;;;1.25;0.88;;;;;;;20.24;41.50;99945.63;5043122;28;20135;-69
2023/03/23 05:35:54;;;;;;;1.15;1.00;;;;;;;20.26;41.34;99945.44;5049511;28;20054;-69
2023/03/23 05:38:26;;;;;;;0.82;0.63;;;;;;;20.33;41.40;99941.78;5058205;28;20048;-69
2023/03/23 05:40:53;;;;;;;1.23;1.10;;;;;;;20.32;41.48;99950.75;5042977;28;20045;-69
2023/03/23 05:43:25;;;;;;;2.03;1.00;;;;;;;20.40;41.13;99941.78;5036399;28;20112;-69
2023/03/23 05:46:17;;;;;;;0.80;0.80;;;;;;;20.36;41.31;99951.97;5046781;28;20045;-69
2023/03/23 05:48:44;;;;;;;0.90;0.88;;;;;;;20.32;41.22;99955.22;5042222;28;20038;-69
2023/03/23 05:51:14;;;;;;;1.33;0.80;;;;;;;20.35;41.24;99955.63;5028828;28;20028;-69
2023/03/23 05:53:42;;;;;;;1.33;1.20;;;;;;;20.26;41.32;99967.41;5058772;28;21319;-69
2023/03/23 05:56:09;;;;;;;1.00;0.90;;;;;;;20.26;41.42;99969.22;5041889;28;20059;-69
2023/03/23 05:59:04;;;;;;;0.85;0.57;;;;;;;20.27;41.24;99960.28;5038668;28;20049;-69
2023/03/23 06:01:32;;;;;;;1.00;1.00;;;;;;;20.30;41.36;99967.84;5041663;28;20037;-69
2023/03/23 06:03:58;;;;;;;0.82;0.82;;;;;;;20.25;41.34;99968.41;5047721;28;21540;-69
2023/03/23 06:06:32;;;;;;;1.27;0.95;;;;;;;20.26;41.48;99975.34;5045540;28;20124;-69
2023/03/23 06:09:06;;;;;;;0.50;0.50;;;;;;;20.26;41.22;99962.09;5043559;28;20041;-69
2023/03/23 06:11:45;;;;;;;1.52;1.05;;;;;;;20.28;41.28;99972.47;5061230;28;20046;-69
2023/03/23 06:14:28;;;;;;;1.33;1.00;;;;;;;20.33;41.31;99975.34;5041067;28;20073;-69
2023/03/23 06:16:55;;;;;;;1.75;0.82;;;;;;;20.31;41.24;99986.13;5039030;28;20044;-69
2023/03/23 06:19:20;;;;;;;1.55;0.85;;;;;;;20.31;41.38;99983.50;5042412;28;20522;-69
2023/03/23 06:21:55;;;;;;;1.55;1.00;;;;;;;20.31;41.15;99990.59;5035310;28;20053;-69
2023/03/23 06:24:44;;;;;;;0.80;0.80;;;;;;;20.31;41.10;99982.69;5038630;28;20064;-69
2023/03/23 06:27:11;;;;;;;2.25;0.90;;;;;;;20.36;41.11;99978.41;5044009;28;20160;-69
2023/03/23 06:29:37;;;;;;;0.85;0.85;;;;;;;20.38;41.13;99983.47;5036129;28;20409;-69
2023/03/23 06:32:04;;;;;;;1.85;0.90;;;;;;;20.32;41.18;99993.03;5038473;28;20041;-69
2023/03/23 06:34:32;;;;;;;1.02;0.77;;;;;;;20.25;41.26;100004.63;5041411;28;20071;-69
2023/03/23 06:37:24;;;;;;;1.00;1.00;;;;;;;20.28;41.32;99999.72;5043210;28;20442;-69
2023/03/23 06:40:06;;;;;;;1.42;1.33;;;;;;;20.22;41.43;100000.56;5038747;28;20034;-69
2023/03/23 06:42:38;;;;;;;1.25;0.95;;;;;;;20.26;41.33;100014.97;5043874;28;20052;-69
2023/03/23 06:45:32;;;;;;;0.90;0.90;;;;;;;20.33;41.14;100018.47;5048288;28;20052;-69
2023/03/23 06:48:16;;;;;;;0.73;0.73;;;;;;;20.36;41.00;100018.06;5043788;28;20048;-69
2023/03/23 06:50:44;;;;;;;1.48;0.65;;;;;;;20.35;41.11;100034.13;5045453;28;20057;-69
2023/03/23 06:53:11;;;;;;;1.30;1.20;;;;;;;20.32;41.12;100048.56;5043005;28;20047;-70
2023/03/23 06:55:39;;;;;;;0.95;0.85;;;;;;;20.36;41.03;100041.03;5040768;28;20033;-69
2023/03/23 06:58:05;;;;;;;0.77;0.77;;;;;;;20.27;41.23;100043.06;5039939;28;20044;-69
2023/03/23 07:00:32;;;;;;;1.25;0.93;;;;;;;20.33;41.14;100044.91;5044603;28;20072;-69
2023/03/23 07:02:58;;;;;;;1.15;0.82;;;;;;;20.28;41.23;100052.59;5057222;28;20431;-69
2023/03/23 07:05:25;;;;;;;0.95;0.82;;;;;;;20.22;41.49;100054.22;5040790;28;20045;-69
2023/03/23 07:07:51;;;;;;;1.30;0.85;;;;;;;20.25;41.30;100060.94;5046195;28;20037;-69
2023/03/23 07:10:39;;;;;;;1.05;0.90;;;;;;;20.30;41.09;100050.59;5046440;28;20046;-69
2023/03/23 07:13:06;;;;;;;1.92;1.02;;;;;;;20.27;41.31;100061.56;5044134;28;20037;-69
2023/03/23 07:15:43;;;;;;;1.55;0.90;;;;;;;20.29;41.30;100059.56;5046148;28;20428;-69
2023/03/23 07:18:09;;;;;;;0.93;0.80;;;;;;;20.19;41.38;100057.28;5048613;28;20037;-69
2023/03/23 07:20:41;;;;;;;0.80;0.80;;;;;;;20.19;41.38;100057.28;5040475;28;20025;-69
2023/03/23 07:23:07;;;;;;;1.23;1.00;;;;;;;20.26;41.34;100065.22;5037784;28;20052;-69
2023/03/23 07:25:40;;;;;;;1.40;0.88;;;;;;;20.30;41.06;100060.38;5041889;28;20058;-69
2023/03/23 07:28:07;;;;;;;1.92;1.20;;;;;;;20.42;41.00;100059.59;5040287;28;20475;-70
2023/03/23 07:30:33;;;;;;;1.05;0.90;;;;;;;20.97;39.81;100048.78;5041228;28;20033;-70
2023/03/23 07:32:59;;;;;;;1.70;1.08;;;;;;;21.23;39.16;100058.53;5036510;28;20033;-69
2023/03/23 07:35:25;;;;;;;1.77;1.17;;;;;;;21.42;39.08;100076.25;5045217;28;20553;-69
2023/03/23 07:37:59;;;;;;;1.33;0.85;;;;;;;21.51;38.82;100060.91;5045925;28;20124;-69
2023/03/23 07:40:26;;;;;;;2.70;1.02;;;;;;;21.51;38.98;100061.72;5043822;28;21318;-69
2023/03/23 07:42:57;;;;;;;2.78;1.00;;;;;;;21.53;39.15;100062.34;5038117;28;20038;-69
2023/03/23 07:45:39;;;;;;;2.38;1.40;;;;;;;21.51;39.25;100055.63;5037958;28;20025;-69
2023/03/23 07:48:06;;;;;;;1.23;1.00;;;;;;;21.51;39.16;100079.47;5042130;28;20033;-69
2023/03/23 07:50:32;;;;;;;1.42;1.05;;;;;;;21.49;38.93;100078.84;5035770;28;20336;-69
2023/03/23 07:52:58;;;;;;;1.85;1.10;;;;;;;21.45;39.31;100069.72;5036316;28;20478;-69
2023/03/23 07:55:28;;;;;;;1.73;1.05;;;;;;;21.44;39.19;100073.38;5055006;28;20045;-69
2023/03/23 07:58:01;;;;;;;1.50;0.93;;;;;;;21.42;39.43;100068.28;5047128;28;20036;-69
2023/03/23 08:00:28;;;;;;;0.68;0.68;;;;;;;21.40;39.31;100071.16;5039637;28;20079;-69
2023/03/23 08:02:56;;;;;;;2.03;1.15;;;;;;;21.34;39.59;100066.66;5038170;28;20060;-69
2023/03/23 08:05:45;;;;;;;1.25;1.10;;;;;;;21.38;39.37;100072.38;5038599;28;20040;-69
2023/03/23 08:08:20;;;;;;;2.08;1.20;;;;;;;21.33;39.42;100080.94;5038352;28;20053;-69
2023/03/23 08:11:06;;;;;;;1.40;0.98;;;;;;;21.26;39.49;100098.69;5042114;28;20546;-69
2023/03/23 08:13:52;;;;;;;1.75;1.17;;;;;;;21.18;39.84;100101.50;5029563;28;20049;-70
2023/03/23 08:16:42;;;;;;;1.80;0.93;;;;;;;21.12;40.04;100104.97;5037687;28;20140;-70
2023/03/23 08:19:36;;;;;;;0.75;0.75;;;;;;;21.09;40.30;100106.19;5041284;28;20044;-69
2023/03/23 08:22:29;;;;;;;1.67;0.80;;;;;;;20.95;40.22;100109.88;5042454;28;20092;-69
2023/03/23 08:25:11;;;;;;;2.15;0.98;;;;;;;21.06;40.22;100103.97;5030383;28;20038;-68
2023/03/23 08:27:56;;;;;;;1.25;0.90;;;;;;;20.96;40.41;100094.81;5041616;28;20687;-69
2023/03/23 08:30:33;;;;;;;1.13;0.73;;;;;;;21.00;40.25;100107.41;5040510;28;20041;-71
2023/03/23 08:33:18;;;;;;;2.15;1.20;;;;;;;21.00;40.43;100110.06;5054295;28;20032;-72
2023/03/23 08:35:54;;;;;;;1.50;1.40;;;;;;;20.81;40.97;100110.88;5040655;28;20033;-72
2023/03/23 08:38:40;;;;;;;1.60;0.90;;;;;;;20.97;40.67;100120.25;5040885;28;20096;-69
2023/03/23 08:41:10;;;;;;;2.33;0.95;;;;;;;20.91;40.61;100118.44;5045573;28;20152;-69
2023/03/23 08:43:54;;;;;;;1.70;1.02;;;;;;;20.72;40.96;100134.09;5048709;28;20029;-69
2023/03/23 08:46:35;;;;;;;1.80;1.00;;;;;;;20.79;40.74;100119.03;5044160;28;20064;-69
2023/03/23 08:49:15;;;;;;;2.05;1.45;;;;;;;20.79;40.55;100126.97;5021795;28;20033;-69
2023/03/23 08:51:59;;;;;;;2.72;1.23;;;;;;;20.95;40.38;100120.47;5038902;28;20139;-69
2023/03/23 08:54:48;;;;;;;4.47;1.30;;;;;;;21.29;39.87;100137.16;5021012;28;20054;-69
2023/03/23 08:57:37;;;;;;;2.78;1.50;;;;;;;21.41;39.64;100124.94;5041414;28;20049;-69
2023/03/23 09:00:29;;;;;;;4.57;1.63;;;;;;;21.36;39.50;100124.72;5032628;28;20052;-69
2023/03/23 09:03:09;;;;;;;1.77;1.23;;;;;;;21.45;39.41;100120.84;5043215;28;20050;-69
2023/03/23 09:05:46;;;;;;;3.55;1.60;;;;;;;21.34;39.72;100113.53;5042622;28;20437;-69
2023/03/23 09:08:29;;;;;;;1.33;1.00;;;;;;;21.26;39.67;100122.50;5044697;28;20041;-69
2023/03/23 09:10:58;;;;;;;2.90;1.30;;;;;;;21.20;39.93;100125.16;5043664;28;20037;-69
2023/03/23 09:13:24;;;;;;;2.67;1.42;;;;;;;21.25;39.79;100120.06;5046654;28;20116;-71
2023/03/23 09:15:51;;;;;;;1.90;1.17;;;;;;;21.19;39.93;100123.53;5044832;28;20593;-69
2023/03/23 09:18:17;;;;;;;3.13;1.50;;;;;;;21.10;40.06;100136.13;5044690;28;20067;-69
2023/03/23 09:20:43;;;;;;;1.98;1.15;;;;;;;21.12;40.42;100131.44;5043615;28;20041;-69
2023/03/23 09:23:09;;;;;;;1.90;1.27;;;;;;;21.16;40.34;100130.00;5042710;28;20041;-69
2023/03/23 09:25:35;;;;;;;2.88;1.75;;;;;;;21.12;40.43;100128.81;5037703;28;20782;-68
2023/03/23 09:28:01;;;;;;;1.40;1.10;;;;;;;21.01;40.27;100118.84;5040196;28;20042;-69
2023/03/23 09:30:29;;;;;;;2.63;1.42;;;;;;;21.01;40.57;100137.38;5039314;28;20053;-69
2023/03/23 09:32:55;;;;;;;3.15;1.67;;;;;;;21.03;40.40;100136.16;5037370;28;20067;-69
2023/03/23 09:35:21;;;;;;;1.98;1.00;;;;;;;20.88;40.81;100143.47;5038688;28;20041;-69
2023/03/23 09:37:48;;;;;;;4.40;1.27;;;;;;;20.81;40.82;100140.81;5039083;28;20028;-69
2023/03/23 09:40:19;;;;;;;2.70;1.58;;;;;;;20.91;40.72;100142.25;5044637;28;20447;-69
2023/03/23 09:42:56;;;;;;;3.45;1.42;;;;;;;20.87;40.57;100143.69;5036900;28;20115;-69
2023/03/23 09:45:33;;;;;;;2.15;1.20;;;;;;;20.93;40.68;100146.31;5034499;28;20037;-69
2023/03/23 09:48:27;;;;;;;2.95;1.40;;;;;;;20.88;40.72;100150.59;5043811;28;20048;-69
2023/03/23 09:51:03;;;;;;;2.45;1.33;;;;;;;20.83;40.88;100156.50;5042939;28;20028;-69
2023/03/23 09:53:37;;;;;;;2.78;1.00;;;;;;;20.81;40.64;100166.44;5040032;28;20047;-68
2023/03/23 09:56:09;;;;;;;2.60;1.50;;;;;;;20.79;40.84;100157.91;5042671;28;20811;-68
2023/03/23 09:58:46;;;;;;;3.33;1.75;;;;;;;20.76;40.86;100160.97;5044318;28;20041;-68
2023/03/23 10:01:24;;;;;;;3.58;1.77;;;;;;;20.74;40.86;100169.09;5041650;28;20036;-68
2023/03/23 10:04:01;;;;;;;2.45;1.40;;;;;;;20.86;40.49;100165.88;5049342;28;20033;-68
2023/03/23 10:06:27;;;;;;;2.40;1.30;;;;;;;20.88;40.63;100169.13;5041398;28;20041;-68
2023/03/23 10:08:55;;;;;;;2.15;1.20;;;;;;;20.79;40.70;100171.94;5042144;28;21612;-68
2023/03/23 10:12:11;;;;;;;2.75;1.45;;;;;;;20.81;40.81;100177.03;5041542;28;20039;-69
2023/03/23 10:14:50;;;;;;;4.68;1.80;;;;;;;20.84;40.67;100174.00;5036482;28;20059;-68
2023/03/23 10:17:24;;;;;;;4.63;2.10;;;;;;;20.78;40.48;100172.16;5043152;28;20051;-69
2023/03/23 10:20:12;;;;;;;2.65;1.60;;;;;;;20.88;40.36;100177.06;5040859;28;20459;-68
2023/03/23 10:22:49;;;;;;;4.47;1.80;;;;;;;20.84;40.45;100171.38;5038279;28;20055;-69
2023/03/23 10:25:19;;;;;;;3.30;1.75;;;;;;;20.86;40.38;100179.91;5040138;28;20026;-69
2023/03/23 10:27:52;;;;;;;4.85;1.85;;;;;;;21.15;39.78;100183.97;5035393;28;20120;-69
2023/03/23 10:30:39;;;;;;;4.28;2.00;;;;;;;21.59;39.04;100175.44;5041024;28;20045;-69
2023/03/23 10:33:17;;;;;;;4.65;1.60;;;;;;;21.73;38.68;100176.22;5037913;28;20092;-68
2023/03/23 10:36:21;;;;;;;3.72;1.70;;;;;;;21.80;38.43;100182.31;5034615;28;20471;-69
2023/03/23 10:39:05;;;;;;;4.03;1.80;;;;;;;21.77;38.57;100187.22;5037511;28;20452;-68
2023/03/23 10:41:31;;;;;;;3.70;2.00;;;;;;;21.74;38.36;100198.25;5041871;28;20114;-69
2023/03/23 10:43:57;;;;;;;4.50;1.67;;;;;;;21.63;39.14;100195.19;5044509;28;20045;-69
2023/03/23 10:46:31;;;;;;;4.05;2.00;;;;;;;21.64;38.92;100196.00;5041067;28;20056;-68
2023/03/23 10:49:01;;;;;;;4.25;1.77;;;;;;;21.63;38.80;100174.00;5039801;28;20120;-68
2023/03/23 10:51:40;;;;;;;3.50;2.08;;;;;;;21.63;39.14;100195.19;5039480;28;20136;-68
2023/03/23 10:54:06;;;;;;;4.03;2.05;;;;;;;21.65;38.98;100187.84;5039507;28;20087;-68
2023/03/23 10:56:37;;;;;;;5.07;1.65;;;;;;;21.58;38.94;100195.00;5045898;28;20053;-68
2023/03/23 10:59:22;;;;;;;3.45;1.67;;;;;;;21.47;39.12;100185.03;5041109;28;20086;-68
2023/03/23 11:01:54;;;;;;;2.60;1.58;;;;;;;21.52;38.76;100182.56;5041152;28;20044;-68
2023/03/23 11:04:20;;;;;;;3.38;1.80;;;;;;;21.52;38.83;100189.69;5041578;28;20040;-68
2023/03/23 11:06:50;;;;;;;4.18;1.77;;;;;;;21.50;39.00;100183.78;5035700;28;22015;-68
2023/03/23 11:09:18;;;;;;;2.65;1.45;;;;;;;21.44;39.14;100196.03;5035712;28;20029;-68
2023/03/23 11:11:52;;;;;;;6.00;2.08;;;;;;;21.32;39.55;100195.81;5042626;28;20033;-67
2023/03/23 11:14:30;;;;;;;3.63;1.67;;;;;;;21.30;39.32;100187.28;5037263;28;20428;-68
2023/03/23 11:17:02;;;;;;;5.38;1.58;;;;;;;21.22;39.39;100195.41;5042085;28;20069;-68
2023/03/23 11:19:36;;;;;;;3.80;2.03;;;;;;;21.21;39.76;100188.50;5044000;28;20041;-67
2023/03/23 11:22:04;;;;;;;6.00;2.05;;;;;;;21.28;39.62;100196.44;5040335;28;20049;-68
2023/03/23 11:24:34;;;;;;;3.92;1.50;;;;;;;21.16;39.57;100198.84;5043285;28;20033;-69
2023/03/23 11:27:00;;;;;;;;;;;;;;;21.01;39.99;100190.31;5035446;28;20025;-68
2023/03/23 11:29:28;;;;;;;4.43;1.90;;;;;;;21.07;39.80;100189.50;5033006;28;19936;-68
2023/03/23 11:32:07;;;;;;;4.05;1.63;;;;;;;21.06;39.67;100198.47;5040015;28;20041;-68
2023/03/23 11:34:41;;;;;;;3.73;1.63;;;;;;;21.03;39.86;100191.75;5045405;28;20087;-68
2023/03/23 11:37:32;;;;;;;4.60;1.80;;;;;;;21.04;39.78;100189.91;5040419;28;20164;-68
2023/03/23 11:40:06;;;;;;;3.33;1.70;;;;;;;20.93;40.01;100203.72;5037336;28;20037;-68
2023/03/23 11:42:31;;;;;;;1.98;1.40;;;;;;;20.97;40.03;100207.59;5042173;28;20609;-68
2023/03/23 11:45:14;;;;;;;2.15;1.38;;;;;;;20.95;40.06;100201.69;5039577;28;20044;-68
2023/03/23 11:47:49;;;;;;;3.25;1.42;;;;;;;20.85;40.19;100217.97;5035312;28;20110;-68
2023/03/23 11:50:23;;;;;;;3.53;1.50;;;;;;;20.88;40.04;100212.28;5040231;28;20048;-68
2023/03/23 11:53:30;;;;;;;3.35;1.90;;;;;;;20.84;40.21;100231.41;5041537;28;20036;-68
2023/03/23 11:56:06;;;;;;;3.33;1.40;;;;;;;20.89;40.12;100219.19;5038272;28;20399;-68
2023/03/23 11:58:32;;;;;;;3.47;1.20;;;;;;;20.83;40.30;100222.66;5070609;28;20037;-67